Terminal Aerodrome Forecast
Issued by NWS

Home | Current Version | Previous Version | Text Only | Print | Product List | Glossary On
Versions: 1 2 3 4 5 6 7 8 9 10 11 12 13 14 15 16 17 18 19 20 21 22 23 24 25 26 27 28 29
675
FTUS43 KDVN 090949 AAA
TAFCID
TAF AMD
KCID 090949Z 0910/1006 32015G22KT 5SM -SN BR BKN015 OVC025
      TEMPO 0910/0912 2SM -SN BR
     FM091500 32018G26KT 6SM -SHSN BR BKN025
     FM092000 32019G27KT P6SM SCT025=

USA.gov is the U.S. government's official web portal to all federal, state and local government web resources and services.